sensor_id;sensor_type;location;lat;lon;timestamp;pressure;altitude;pressure_sealevel;temperature
64600;BMP280;6553;48.412;9.514;2023-04-24T00:00:55;71657.97;;;19.85
64600;BMP280;6553;48.412;9.514;2023-04-24T00:03:23;71666.81;;;19.85
64600;BMP280;6553;48.412;9.514;2023-04-24T00:05:49;71660.88;;;19.82
64600;BMP280;6553;48.412;9.514;2023-04-24T00:08:15;71661.28;;;19.85
64600;BMP280;6553;48.412;9.514;2023-04-24T00:10:41;71661.28;;;19.85
64600;BMP280;6553;48.412;9.514;2023-04-24T00:13:07;71664.59;;;19.86
64600;BMP280;6553;48.412;9.514;2023-04-24T00:15:33;71661.94;;;19.83
64600;BMP280;6553;48.412;9.514;2023-04-24T00:17:59;71659.69;;;19.84
64600;BMP280;6553;48.412;9.514;2023-04-24T00:20:27;71660.88;;;19.82
64600;BMP280;6553;48.412;9.514;2023-04-24T00:22:55;71660.88;;;19.82
64600;BMP280;6553;48.412;9.514;2023-04-24T00:25:21;71665.13;;;19.86
64600;BMP280;6553;48.412;9.514;2023-04-24T00:27:47;71659.69;;;19.84
64600;BMP280;6553;48.412;9.514;2023-04-24T00:30:13;71653.88;;;19.78
64600;BMP280;6553;48.412;9.514;2023-04-24T00:32:38;71654.81;;;19.82
64600;BMP280;6553;48.412;9.514;2023-04-24T00:35:05;71654.81;;;19.82
64600;BMP280;6553;48.412;9.514;2023-04-24T00:37:31;71659.19;;;19.83
64600;BMP280;6553;48.412;9.514;2023-04-24T00:39:57;71661.41;;;19.83
64600;BMP280;6553;48.412;9.514;2023-04-24T00:42:23;71658.66;;;19.83
64600;BMP280;6553;48.412;9.514;2023-04-24T00:44:51;71655.56;;;19.77
64600;BMP280;6553;48.412;9.514;2023-04-24T00:47:18;71658.09;;;19.82
64600;BMP280;6553;48.412;9.514;2023-04-24T00:49:44;71662.56;;;19.81
64600;BMP280;6553;48.412;9.514;2023-04-24T00:52:10;71657.69;;;19.79
64600;BMP280;6553;48.412;9.514;2023-04-24T00:54:36;71655.97;;;19.80
64600;BMP280;6553;48.412;9.514;2023-04-24T00:57:05;71657.69;;;19.79
64600;BMP280;6553;48.412;9.514;2023-04-24T00:59:31;71655.97;;;19.80
64600;BMP280;6553;48.412;9.514;2023-04-24T01:01:58;71650.03;;;19.77
64600;BMP280;6553;48.412;9.514;2023-04-24T01:04:25;71660.47;;;19.79
64600;BMP280;6553;48.412;9.514;2023-04-24T01:06:52;71657.03;;;19.81
64600;BMP280;6553;48.412;9.514;2023-04-24T01:09:18;71654.28;;;19.81
64600;BMP280;6553;48.412;9.514;2023-04-24T01:11:44;71661.50;;;19.80
64600;BMP280;6553;48.412;9.514;2023-04-24T01:14:11;71658.72;;;19.80
64600;BMP280;6553;48.412;9.514;2023-04-24T01:16:37;71654.94;;;19.79
64600;BMP280;6553;48.412;9.514;2023-04-24T01:19:06;71657.69;;;19.79
64600;BMP280;6553;48.412;9.514;2023-04-24T01:21:36;71650.69;;;19.75
64600;BMP280;6553;48.412;9.514;2023-04-24T01:24:06;71656.63;;;19.78
64600;BMP280;6553;48.412;9.514;2023-04-24T01:26:32;71652.28;;;19.77
64600;BMP280;6553;48.412;9.514;2023-04-24T01:28:58;71652.28;;;19.77
64600;BMP280;6553;48.412;9.514;2023-04-24T01:31:24;71656.63;;;19.78
64600;BMP280;6553;48.412;9.514;2023-04-24T01:33:51;71651.75;;;19.76
64600;BMP280;6553;48.412;9.514;2023-04-24T01:36:18;71652.78;;;19.77
64600;BMP280;6553;48.412;9.514;2023-04-24T01:38:44;71652.78;;;19.77
64600;BMP280;6553;48.412;9.514;2023-04-24T01:41:10;71650.03;;;19.77
64600;BMP280;6553;48.412;9.514;2023-04-24T01:43:36;71651.75;;;19.76
64600;BMP280;6553;48.412;9.514;2023-04-24T01:46:02;71657.81;;;19.77
64600;BMP280;6553;48.412;9.514;2023-04-24T01:48:29;71653.97;;;19.76
64600;BMP280;6553;48.412;9.514;2023-04-24T01:50:56;71653.97;;;19.76
64600;BMP280;6553;48.412;9.514;2023-04-24T01:53:22;71655.56;;;19.77
64600;BMP280;6553;48.412;9.514;2023-04-24T01:55:48;71646.94;;;19.72
64600;BMP280;6553;48.412;9.514;2023-04-24T01:58:14;71649.06;;;19.74
64600;BMP280;6553;48.412;9.514;2023-04-24T02:00:40;71650.69;;;19.75
64600;BMP280;6553;48.412;9.514;2023-04-24T02:03:05;71650.69;;;19.75
64600;BMP280;6553;48.412;9.514;2023-04-24T02:05:31;71653.44;;;19.75
64600;BMP280;6553;48.412;9.514;2023-04-24T02:07:57;71653.03;;;19.72
64600;BMP280;6553;48.412;9.514;2023-04-24T02:10:23;71653.97;;;19.76
64600;BMP280;6553;48.412;9.514;2023-04-24T02:12:48;71645.78;;;19.73
64600;BMP280;6553;48.412;9.514;2023-04-24T02:15:14;71651.84;;;19.74
64600;BMP280;6553;48.412;9.514;2023-04-24T02:17:40;71647.50;;;19.72
64600;BMP280;6553;48.412;9.514;2023-04-24T02:20:07;71650.78;;;19.73
64600;BMP280;6553;48.412;9.514;2023-04-24T02:22:33;71647.50;;;19.72
64600;BMP280;6553;48.412;9.514;2023-04-24T02:25:01;71651.31;;;19.73
64600;BMP280;6553;48.412;9.514;2023-04-24T02:27:27;71649.72;;;19.72
64600;BMP280;6553;48.412;9.514;2023-04-24T02:29:52;71649.19;;;19.71
64600;BMP280;6553;48.412;9.514;2023-04-24T02:32:18;71641.53;;;19.69
64600;BMP280;6553;48.412;9.514;2023-04-24T02:34:44;71647.06;;;19.69
64600;BMP280;6553;48.412;9.514;2023-04-24T02:37:11;71648.13;;;19.70
64600;BMP280;6553;48.412;9.514;2023-04-24T02:39:37;71651.84;;;19.74
64600;BMP280;6553;48.412;9.514;2023-04-24T02:42:03;71648.13;;;19.70
64600;BMP280;6553;48.412;9.514;2023-04-24T02:44:30;71650.25;;;19.72
64600;BMP280;6553;48.412;9.514;2023-04-24T02:46:55;71647.63;;;19.70
64600;BMP280;6553;48.412;9.514;2023-04-24T02:49:22;71642.69;;;19.68
64600;BMP280;6553;48.412;9.514;2023-04-24T02:51:48;71652.50;;;19.72
64600;BMP280;6553;48.412;9.514;2023-04-24T02:54:14;71643.66;;;19.71
64600;BMP280;6553;48.412;9.514;2023-04-24T02:56:39;71644.84;;;19.70
64600;BMP280;6553;48.412;9.514;2023-04-24T02:59:08;71646.41;;;19.71
64600;BMP280;6553;48.412;9.514;2023-04-24T03:01:34;71641.53;;;19.69
64600;BMP280;6553;48.412;9.514;2023-04-24T03:04:01;71653.03;;;19.72
64600;BMP280;6553;48.412;9.514;2023-04-24T03:06:26;71649.72;;;19.72
64600;BMP280;6553;48.412;9.514;2023-04-24T03:08:52;71646.41;;;19.71
64600;BMP280;6553;48.412;9.514;2023-04-24T03:11:18;71648.66;;;19.71
64600;BMP280;6553;48.412;9.514;2023-04-24T03:13:45;71640.47;;;19.68
64600;BMP280;6553;48.412;9.514;2023-04-24T03:16:11;71639.53;;;19.65
64600;BMP280;6553;48.412;9.514;2023-04-24T03:18:36;71642.69;;;19.68
64600;BMP280;6553;48.412;9.514;2023-04-24T03:21:03;71639.94;;;19.68
64600;BMP280;6553;48.412;9.514;2023-04-24T03:23:30;71641.66;;;19.67
64600;BMP280;6553;48.412;9.514;2023-04-24T03:25:56;71646.53;;;19.69
64600;BMP280;6553;48.412;9.514;2023-04-24T03:28:22;71645.59;;;19.65
64600;BMP280;6553;48.412;9.514;2023-04-24T03:30:54;71641.75;;;19.64
64600;BMP280;6553;48.412;9.514;2023-04-24T03:33:21;71637.91;;;19.63
64600;BMP280;6553;48.412;9.514;2023-04-24T03:35:59;71643.38;;;19.66
64600;BMP280;6553;48.412;9.514;2023-04-24T03:38:26;71647.19;;;19.67
64600;BMP280;6553;48.412;9.514;2023-04-24T03:41:11;71640.59;;;19.66
64600;BMP280;6553;48.412;9.514;2023-04-24T03:43:48;71639.41;;;19.67
64600;BMP280;6553;48.412;9.514;2023-04-24T03:46:14;71638.38;;;19.66
64600;BMP280;6553;48.412;9.514;2023-04-24T03:48:45;71637.81;;;19.66
64600;BMP280;6553;48.412;9.514;2023-04-24T03:51:12;71641.13;;;19.66
64600;BMP280;6553;48.412;9.514;2023-04-24T03:53:41;71640.16;;;19.63
64600;BMP280;6553;48.412;9.514;2023-04-24T03:56:08;71640.06;;;19.65
64600;BMP280;6553;48.412;9.514;2023-04-24T03:58:36;71639.53;;;19.65
64600;BMP280;6553;48.412;9.514;2023-04-24T04:01:02;71643.38;;;19.66
64600;BMP280;6553;48.412;9.514;2023-04-24T04:03:57;71642.81;;;19.65
64600;BMP280;6553;48.412;9.514;2023-04-24T04:06:25;71642.16;;;19.67
64600;BMP280;6553;48.412;9.514;2023-04-24T04:08:53;71638.44;;;19.63
64600;BMP280;6553;48.412;9.514;2023-04-24T04:11:18;71642.28;;;19.65
64600;BMP280;6553;48.412;9.514;2023-04-24T04:13:45;71641.13;;;19.66
64600;BMP280;6553;48.412;9.514;2023-04-24T04:16:14;71641.75;;;19.64
64600;BMP280;6553;48.412;9.514;2023-04-24T04:18:43;71643.38;;;19.66
64600;BMP280;6553;48.412;9.514;2023-04-24T04:21:09;71641.75;;;19.64
64600;BMP280;6553;48.412;9.514;2023-04-24T04:23:35;71642.28;;;19.65
64600;BMP280;6553;48.412;9.514;2023-04-24T04:26:11;71641.22;;;19.63
64600;BMP280;6553;48.412;9.514;2023-04-24T04:28:56;71643.44;;;19.63
64600;BMP280;6553;48.412;9.514;2023-04-24T04:31:22;71636.22;;;19.64
64600;BMP280;6553;48.412;9.514;2023-04-24T04:33:48;71645.69;;;19.63
64600;BMP280;6553;48.412;9.514;2023-04-24T04:36:14;71639.00;;;19.64
64600;BMP280;6553;48.412;9.514;2023-04-24T04:38:45;71639.00;;;19.64
64600;BMP280;6553;48.412;9.514;2023-04-24T04:41:22;71636.22;;;19.64
64600;BMP280;6553;48.412;9.514;2023-04-24T04:43:49;71641.75;;;19.64
64600;BMP280;6553;48.412;9.514;2023-04-24T04:46:16;71641.75;;;19.64
64600;BMP280;6553;48.412;9.514;2023-04-24T04:48:59;71634.75;;;19.60
64600;BMP280;6553;48.412;9.514;2023-04-24T04:51:25;71640.69;;;19.63
64600;BMP280;6553;48.412;9.514;2023-04-24T04:53:51;71641.75;;;19.64
64600;BMP280;6553;48.412;9.514;2023-04-24T04:56:17;71639.00;;;19.64
64600;BMP280;6553;48.412;9.514;2023-04-24T04:58:45;71637.41;;;19.63
64600;BMP280;6553;48.412;9.514;2023-04-24T05:01:14;71645.06;;;19.65
64600;BMP280;6553;48.412;9.514;2023-04-24T05:03:42;71637.50;;;19.60
64600;BMP280;6553;48.412;9.514;2023-04-24T05:06:11;71634.75;;;19.60
64600;BMP280;6553;48.412;9.514;2023-04-24T05:08:38;71640.69;;;19.63
64600;BMP280;6553;48.412;9.514;2023-04-24T05:11:08;71640.69;;;19.63
64600;BMP280;6553;48.412;9.514;2023-04-24T05:13:34;71640.16;;;19.63
64600;BMP280;6553;48.412;9.514;2023-04-24T05:16:01;71637.41;;;19.63
64600;BMP280;6553;48.412;9.514;2023-04-24T05:18:29;71635.81;;;19.61
64600;BMP280;6553;48.412;9.514;2023-04-24T05:20:55;71640.69;;;19.63
64600;BMP280;6553;48.412;9.514;2023-04-24T05:23:21;71630.91;;;19.59
64600;BMP280;6553;48.412;9.514;2023-04-24T05:25:50;71639.66;;;19.62
64600;BMP280;6553;48.412;9.514;2023-04-24T05:28:16;71634.75;;;19.60
64600;BMP280;6553;48.412;9.514;2023-04-24T05:30:47;71636.88;;;19.62
64600;BMP280;6553;48.412;9.514;2023-04-24T05:33:14;71641.75;;;19.64
64600;BMP280;6553;48.412;9.514;2023-04-24T05:35:41;71639.00;;;19.64
64600;BMP280;6553;48.412;9.514;2023-04-24T05:38:12;71639.75;;;19.59
64600;BMP280;6553;48.412;9.514;2023-04-24T05:40:39;71631.66;;;19.54
64600;BMP280;6553;48.412;9.514;2023-04-24T05:43:05;71635.81;;;19.61
64600;BMP280;6553;48.412;9.514;2023-04-24T05:45:31;71638.03;;;19.60
64600;BMP280;6553;48.412;9.514;2023-04-24T05:47:57;71629.88;;;19.58
64600;BMP280;6553;48.412;9.514;2023-04-24T05:50:23;71639.22;;;19.59
64600;BMP280;6553;48.412;9.514;2023-04-24T05:52:49;71639.97;;;19.54
64600;BMP280;6553;48.412;9.514;2023-04-24T05:55:25;71633.16;;;19.58
64600;BMP280;6553;48.412;9.514;2023-04-24T05:57:52;71635.41;;;19.58
64600;BMP280;6553;48.412;9.514;2023-04-24T06:00:19;71632.09;;;19.57
64600;BMP280;6553;48.412;9.514;2023-04-24T06:02:57;71629.88;;;19.58
64600;BMP280;6553;48.412;9.514;2023-04-24T06:05:23;71631.56;;;19.57
64600;BMP280;6553;48.412;9.514;2023-04-24T06:07:52;71632.63;;;19.58
64600;BMP280;6553;48.412;9.514;2023-04-24T06:10:21;71636.97;;;19.59
64600;BMP280;6553;48.412;9.514;2023-04-24T06:12:46;71635.91;;;19.58
64600;BMP280;6553;48.412;9.514;2023-04-24T06:15:16;71633.16;;;19.58
64600;BMP280;6553;48.412;9.514;2023-04-24T06:17:51;71633.69;;;19.59
64600;BMP280;6553;48.412;9.514;2023-04-24T06:20:18;71635.81;;;19.61
64600;BMP280;6553;48.412;9.514;2023-04-24T06:22:44;71631.56;;;19.57
64600;BMP280;6553;48.412;9.514;2023-04-24T06:25:10;71631.03;;;19.56
64600;BMP280;6553;48.412;9.514;2023-04-24T06:27:36;71636.88;;;19.62
64600;BMP280;6553;48.412;9.514;2023-04-24T06:30:02;71636.88;;;19.62
64600;BMP280;6553;48.412;9.514;2023-04-24T06:32:28;71639.66;;;19.62
64600;BMP280;6553;48.412;9.514;2023-04-24T06:34:54;71641.22;;;19.63
64600;BMP280;6553;48.412;9.514;2023-04-24T06:37:20;71640.16;;;19.63
64600;BMP280;6553;48.412;9.514;2023-04-24T06:39:46;71641.22;;;19.63
64600;BMP280;6553;48.412;9.514;2023-04-24T06:42:12;71636.34;;;19.62
64600;BMP280;6553;48.412;9.514;2023-04-24T06:44:38;71638.03;;;19.60
64600;BMP280;6553;48.412;9.514;2023-04-24T06:47:12;71645.06;;;19.65
64600;BMP280;6553;48.412;9.514;2023-04-24T06:49:39;71641.75;;;19.64
64600;BMP280;6553;48.412;9.514;2023-04-24T06:52:06;71631.13;;;19.54
64600;BMP280;6553;48.412;9.514;2023-04-24T06:54:32;71638.44;;;19.63
64600;BMP280;6553;48.412;9.514;2023-04-24T06:56:59;71643.91;;;19.66
64600;BMP280;6553;48.412;9.514;2023-04-24T06:59:26;71656.63;;;19.78
64600;BMP280;6553;48.412;9.514;2023-04-24T07:01:53;71654.09;;;19.73
64600;BMP280;6553;48.412;9.514;2023-04-24T07:04:19;71660.34;;;19.82
64600;BMP280;6553;48.412;9.514;2023-04-24T07:06:48;71668.94;;;19.87
64600;BMP280;6553;48.412;9.514;2023-04-24T07:09:17;71662.22;;;19.89
64600;BMP280;6553;48.412;9.514;2023-04-24T07:11:45;71671.50;;;19.92
64600;BMP280;6553;48.412;9.514;2023-04-24T07:14:11;71674.69;;;19.95
64600;BMP280;6553;48.412;9.514;2023-04-24T07:16:36;71672.31;;;19.98
64600;BMP280;6553;48.412;9.514;2023-04-24T07:19:02;71673.41;;;19.99
64600;BMP280;6553;48.412;9.514;2023-04-24T07:21:28;71680.94;;;20.04
64600;BMP280;6553;48.412;9.514;2023-04-24T07:23:54;71677.84;;;19.98
64600;BMP280;6553;48.412;9.514;2023-04-24T07:26:20;71664.34;;;19.91
64600;BMP280;6553;48.412;9.514;2023-04-24T07:28:46;71662.22;;;19.89
64600;BMP280;6553;48.412;9.514;2023-04-24T07:31:12;71657.97;;;19.85
64600;BMP280;6553;48.412;9.514;2023-04-24T07:33:38;71657.97;;;19.85
64600;BMP280;6553;48.412;9.514;2023-04-24T07:36:04;71654.28;;;19.81
64600;BMP280;6553;48.412;9.514;2023-04-24T07:38:30;71654.28;;;19.81
64600;BMP280;6553;48.412;9.514;2023-04-24T07:40:56;71659.28;;;19.81
64600;BMP280;6553;48.412;9.514;2023-04-24T07:43:22;71655.47;;;19.80
64600;BMP280;6553;48.412;9.514;2023-04-24T07:45:50;71655.97;;;19.80
64600;BMP280;6553;48.412;9.514;2023-04-24T07:48:17;71651.84;;;19.74
64600;BMP280;6553;48.412;9.514;2023-04-24T07:50:45;71656.63;;;19.78
64600;BMP280;6553;48.412;9.514;2023-04-24T07:53:11;71657.28;;;19.76
64600;BMP280;6553;48.412;9.514;2023-04-24T07:55:37;71653.44;;;19.75
64600;BMP280;6553;48.412;9.514;2023-04-24T07:58:03;71660.34;;;19.82
64600;BMP280;6553;48.412;9.514;2023-04-24T08:00:29;71660.34;;;19.82
64600;BMP280;6553;48.412;9.514;2023-04-24T08:02:55;71648.97;;;19.76
64600;BMP280;6553;48.412;9.514;2023-04-24T08:05:21;71650.69;;;19.75
64600;BMP280;6553;48.412;9.514;2023-04-24T08:07:46;71651.84;;;19.74
64600;BMP280;6553;48.412;9.514;2023-04-24T08:10:14;71646.84;;;19.74
64600;BMP280;6553;48.412;9.514;2023-04-24T08:12:41;71652.91;;;19.75
64600;BMP280;6553;48.412;9.514;2023-04-24T08:15:07;71651.31;;;19.73
64600;BMP280;6553;48.412;9.514;2023-04-24T08:17:35;71650.69;;;19.75
64600;BMP280;6553;48.412;9.514;2023-04-24T08:20:03;71650.69;;;19.75
64600;BMP280;6553;48.412;9.514;2023-04-24T08:22:31;71652.38;;;19.74
64600;BMP280;6553;48.412;9.514;2023-04-24T08:24:58;71650.03;;;19.77
64600;BMP280;6553;48.412;9.514;2023-04-24T08:27:24;71653.88;;;19.78
64600;BMP280;6553;48.412;9.514;2023-04-24T08:29:53;71658.72;;;19.80
64600;BMP280;6553;48.412;9.514;2023-04-24T08:32:18;71659.28;;;19.81
64600;BMP280;6553;48.412;9.514;2023-04-24T08:34:44;71657.44;;;19.84
64600;BMP280;6553;48.412;9.514;2023-04-24T08:37:10;71660.22;;;19.84
64600;BMP280;6553;48.412;9.514;2023-04-24T08:39:37;71661.94;;;19.83
64600;BMP280;6553;48.412;9.514;2023-04-24T08:42:05;71663.66;;;19.82
64600;BMP280;6553;48.412;9.514;2023-04-24T08:44:34;71661.94;;;19.83
64600;BMP280;6553;48.412;9.514;2023-04-24T08:47:02;71660.88;;;19.82
64600;BMP280;6553;48.412;9.514;2023-04-24T08:49:29;71660.34;;;19.82
64600;BMP280;6553;48.412;9.514;2023-04-24T08:51:55;71642.66;;;19.81
64600;BMP280;6553;48.412;9.514;2023-04-24T08:54:21;71651.63;;;19.79
64600;BMP280;6553;48.412;9.514;2023-04-24T08:56:48;71657.56;;;19.82
64600;BMP280;6553;48.412;9.514;2023-04-24T08:59:15;71663.41;;;19.87
64600;BMP280;6553;48.412;9.514;2023-04-24T09:01:42;71666.59;;;19.90
64600;BMP280;6553;48.412;9.514;2023-04-24T09:04:10;71662.97;;;19.84
64600;BMP280;6553;48.412;9.514;2023-04-24T09:06:39;71665.66;;;19.87
64600;BMP280;6553;48.412;9.514;2023-04-24T09:09:05;71660.13;;;19.87
64600;BMP280;6553;48.412;9.514;2023-04-24T09:11:32;71668.44;;;19.87
64600;BMP280;6553;48.412;9.514;2023-04-24T09:14:01;71665.66;;;19.87
64600;BMP280;6553;48.412;9.514;2023-04-24T09:16:27;71662.34;;;19.86
64600;BMP280;6553;48.412;9.514;2023-04-24T09:18:53;71666.19;;;19.87
64600;BMP280;6553;48.412;9.514;2023-04-24T09:21:22;71658.50;;;19.85
64600;BMP280;6553;48.412;9.514;2023-04-24T09:24:00;71660.13;;;19.87
64600;BMP280;6553;48.412;9.514;2023-04-24T09:26:30;71665.66;;;19.87
64600;BMP280;6553;48.412;9.514;2023-04-24T09:28:57;71666.19;;;19.87
64600;BMP280;6553;48.412;9.514;2023-04-24T09:31:27;71666.19;;;19.87
64600;BMP280;6553;48.412;9.514;2023-04-24T09:34:02;71663.41;;;19.87
64600;BMP280;6553;48.412;9.514;2023-04-24T09:36:36;71664.06;;;19.85
64600;BMP280;6553;48.412;9.514;2023-04-24T09:39:15;71670.97;;;19.92
64600;BMP280;6553;48.412;9.514;2023-04-24T09:41:53;71672.16;;;19.90
64600;BMP280;6553;48.412;9.514;2023-04-24T09:44:22;71671.63;;;19.90
64600;BMP280;6553;48.412;9.514;2023-04-24T09:46:53;71665.00;;;19.89
64600;BMP280;6553;48.412;9.514;2023-04-24T09:49:28;71668.31;;;19.89
64600;BMP280;6553;48.412;9.514;2023-04-24T09:52:10;71669.50;;;19.88
64600;BMP280;6553;48.412;9.514;2023-04-24T09:54:37;71672.66;;;19.91
64600;BMP280;6553;48.412;9.514;2023-04-24T09:57:03;71674.16;;;19.95
64600;BMP280;6553;48.412;9.514;2023-04-24T09:59:29;71674.69;;;19.95
64600;BMP280;6553;48.412;9.514;2023-04-24T10:01:56;71671.91;;;19.95
64600;BMP280;6553;48.412;9.514;2023-04-24T10:04:25;71668.84;;;19.90
64600;BMP280;6553;48.412;9.514;2023-04-24T10:06:55;71673.59;;;19.94
64600;BMP280;6553;48.412;9.514;2023-04-24T10:09:24;71664.88;;;19.91
64600;BMP280;6553;48.412;9.514;2023-04-24T10:11:52;71666.19;;;19.87
64600;BMP280;6553;48.412;9.514;2023-04-24T10:14:24;71666.19;;;19.87
64600;BMP280;6553;48.412;9.514;2023-04-24T10:16:54;71662.34;;;19.86
64600;BMP280;6553;48.412;9.514;2023-04-24T10:19:20;71666.59;;;19.90
64600;BMP280;6553;48.412;9.514;2023-04-24T10:21:47;71672.56;;;19.93
64600;BMP280;6553;48.412;9.514;2023-04-24T10:24:18;71670.97;;;19.92
64600;BMP280;6553;48.412;9.514;2023-04-24T10:26:45;71662.97;;;19.84
64600;BMP280;6553;48.412;9.514;2023-04-24T10:29:14;71666.59;;;19.90
64600;BMP280;6553;48.412;9.514;2023-04-24T10:31:41;71673.19;;;19.91
64600;BMP280;6553;48.412;9.514;2023-04-24T10:34:09;71665.44;;;19.92
64600;BMP280;6553;48.412;9.514;2023-04-24T10:36:53;71673.59;;;19.94
64600;BMP280;6553;48.412;9.514;2023-04-24T10:39:20;71677.44;;;19.95
64600;BMP280;6553;48.412;9.514;2023-04-24T10:41:49;71669.38;;;19.90
64600;BMP280;6553;48.412;9.514;2023-04-24T10:44:15;71674.78;;;19.93
64600;BMP280;6553;48.412;9.514;2023-04-24T10:46:54;71668.19;;;19.92
64600;BMP280;6553;48.412;9.514;2023-04-24T10:49:31;71667.78;;;19.89
64600;BMP280;6553;48.412;9.514;2023-04-24T10:52:03;71669.38;;;19.90
64600;BMP280;6553;48.412;9.514;2023-04-24T10:54:44;71671.06;;;19.89
64600;BMP280;6553;48.412;9.514;2023-04-24T10:59:51;71675.75;;;19.96
64600;BMP280;6553;48.412;9.514;2023-04-24T11:02:18;71674.03;;;19.97
64600;BMP280;6553;48.412;9.514;2023-04-24T11:05:03;71674.03;;;19.97
64600;BMP280;6553;48.412;9.514;2023-04-24T11:07:29;71676.81;;;19.97
64600;BMP280;6553;48.412;9.514;2023-04-24T11:09:59;71678.41;;;19.99
64600;BMP280;6553;48.412;9.514;2023-04-24T11:12:27;71681.16;;;19.99
64600;BMP280;6553;48.412;9.514;2023-04-24T11:17:34;71674.03;;;19.97
64600;BMP280;6553;48.412;9.514;2023-04-24T11:20:11;71677.31;;;19.98
64600;BMP280;6553;48.412;9.514;2023-04-24T11:22:39;71673.50;;;19.97
64600;BMP280;6553;48.412;9.514;2023-04-24T11:25:06;71682.34;;;19.97
64600;BMP280;6553;48.412;9.514;2023-04-24T11:27:41;71673.59;;;19.94
64600;BMP280;6553;48.412;9.514;2023-04-24T11:30:08;71678.00;;;19.96
64600;BMP280;6553;48.412;9.514;2023-04-24T11:32:37;71672.66;;;19.91
64600;BMP280;6553;48.412;9.514;2023-04-24T11:35:22;71662.34;;;19.86
64600;BMP280;6553;48.412;9.514;2023-04-24T11:37:53;71662.97;;;19.84
64600;BMP280;6553;48.412;9.514;2023-04-24T11:40:21;71662.97;;;19.84
64600;BMP280;6553;48.412;9.514;2023-04-24T11:42:51;71665.53;;;19.89
64600;BMP280;6553;48.412;9.514;2023-04-24T11:45:21;71667.78;;;19.89
64600;BMP280;6553;48.412;9.514;2023-04-24T11:47:47;71667.25;;;19.88
64600;BMP280;6553;48.412;9.514;2023-04-24T11:50:20;71666.72;;;19.88
64600;BMP280;6553;48.412;9.514;2023-04-24T11:52:49;71664.47;;;19.88
64600;BMP280;6553;48.412;9.514;2023-04-24T11:57:46;71670.53;;;19.89
64600;BMP280;6553;48.412;9.514;2023-04-24T12:00:39;71675.44;;;19.91
64600;BMP280;6553;48.412;9.514;2023-04-24T12:05:31;71671.50;;;19.92
64600;BMP280;6553;48.412;9.514;2023-04-24T12:07:57;71670.97;;;19.92
64600;BMP280;6553;48.412;9.514;2023-04-24T12:10:26;71670.97;;;19.92
64600;BMP280;6553;48.412;9.514;2023-04-24T12:12:53;71667.78;;;19.89
64600;BMP280;6553;48.412;9.514;2023-04-24T12:15:21;71669.38;;;19.90
64600;BMP280;6553;48.412;9.514;2023-04-24T12:17:47;71668.31;;;19.89
64600;BMP280;6553;48.412;9.514;2023-04-24T12:20:14;71665.66;;;19.87
64600;BMP280;6553;48.412;9.514;2023-04-24T12:22:44;71667.78;;;19.89
64600;BMP280;6553;48.412;9.514;2023-04-24T12:25:12;71661.19;;;19.88
64600;BMP280;6553;48.412;9.514;2023-04-24T12:27:38;71668.44;;;19.87
64600;BMP280;6553;48.412;9.514;2023-04-24T12:30:09;71664.06;;;19.85
64600;BMP280;6553;48.412;9.514;2023-04-24T12:32:41;71666.72;;;19.88
64600;BMP280;6553;48.412;9.514;2023-04-24T12:35:07;71664.06;;;19.85
64600;BMP280;6553;48.412;9.514;2023-04-24T12:37:33;71661.28;;;19.85
64600;BMP280;6553;48.412;9.514;2023-04-24T12:40:09;71661.28;;;19.85
64600;BMP280;6553;48.412;9.514;2023-04-24T12:42:43;71666.97;;;19.83
64600;BMP280;6553;48.412;9.514;2023-04-24T12:45:09;71666.81;;;19.85
64600;BMP280;6553;48.412;9.514;2023-04-24T12:47:39;71667.38;;;19.86
64600;BMP280;6553;48.412;9.514;2023-04-24T12:50:08;71657.44;;;19.84
64600;BMP280;6553;48.412;9.514;2023-04-24T12:52:33;71663.94;;;19.88
64600;BMP280;6553;48.412;9.514;2023-04-24T12:55:00;71663.94;;;19.88
64600;BMP280;6553;48.412;9.514;2023-04-24T12:57:29;71663.53;;;19.85
64600;BMP280;6553;48.412;9.514;2023-04-24T12:59:58;71664.72;;;19.83
64600;BMP280;6553;48.412;9.514;2023-04-24T13:02:29;71655.88;;;19.83
64600;BMP280;6553;48.412;9.514;2023-04-24T13:04:58;71662.97;;;19.84
64600;BMP280;6553;48.412;9.514;2023-04-24T13:07:24;71657.03;;;19.81
64600;BMP280;6553;48.412;9.514;2023-04-24T13:09:51;71661.94;;;19.83
64600;BMP280;6553;48.412;9.514;2023-04-24T13:12:17;71667.91;;;19.86
64600;BMP280;6553;48.412;9.514;2023-04-24T13:14:43;71665.66;;;19.87
64600;BMP280;6553;48.412;9.514;2023-04-24T13:17:09;71661.81;;;19.86
64600;BMP280;6553;48.412;9.514;2023-04-24T13:19:42;71667.25;;;19.88
64600;BMP280;6553;48.412;9.514;2023-04-24T13:22:10;71662.91;;;19.87
64600;BMP280;6553;48.412;9.514;2023-04-24T13:24:37;71665.66;;;19.87
64600;BMP280;6553;48.412;9.514;2023-04-24T13:27:03;71663.41;;;19.87
64600;BMP280;6553;48.412;9.514;2023-04-24T13:29:29;71661.19;;;19.88
64600;BMP280;6553;48.412;9.514;2023-04-24T13:31:55;71667.38;;;19.86
64600;BMP280;6553;48.412;9.514;2023-04-24T13:34:25;71667.38;;;19.86
64600;BMP280;6553;48.412;9.514;2023-04-24T13:36:56;71672.25;;;19.88
64600;BMP280;6553;48.412;9.514;2023-04-24T13:39:24;71664.34;;;19.91
64600;BMP280;6553;48.412;9.514;2023-04-24T13:41:50;71665.13;;;19.86
64600;BMP280;6553;48.412;9.514;2023-04-24T13:44:18;71663.41;;;19.87
64600;BMP280;6553;48.412;9.514;2023-04-24T13:46:47;71664.47;;;19.88
64600;BMP280;6553;48.412;9.514;2023-04-24T13:49:15;71667.78;;;19.89
64600;BMP280;6553;48.412;9.514;2023-04-24T13:51:42;71662.22;;;19.89
64600;BMP280;6553;48.412;9.514;2023-04-24T13:54:08;71667.78;;;19.89
64600;BMP280;6553;48.412;9.514;2023-04-24T13:56:34;71667.50;;;19.83
64600;BMP280;6553;48.412;9.514;2023-04-24T13:59:00;71667.50;;;19.83
64600;BMP280;6553;48.412;9.514;2023-04-24T14:01:26;71657.44;;;19.84
64600;BMP280;6553;48.412;9.514;2023-04-24T14:03:53;71664.06;;;19.85
64600;BMP280;6553;48.412;9.514;2023-04-24T14:06:20;71655.34;;;19.82
64600;BMP280;6553;48.412;9.514;2023-04-24T14:08:47;71658.66;;;19.83
64600;BMP280;6553;48.412;9.514;2023-04-24T14:11:13;71664.28;;;19.80
64600;BMP280;6553;48.412;9.514;2023-04-24T14:13:41;71661.94;;;19.83
64600;BMP280;6553;48.412;9.514;2023-04-24T14:16:08;71652.69;;;19.80
64600;BMP280;6553;48.412;9.514;2023-04-24T14:18:33;71656.41;;;19.83
64600;BMP280;6553;48.412;9.514;2023-04-24T14:20:59;71654.41;;;19.79
64600;BMP280;6553;48.412;9.514;2023-04-24T14:23:27;71659.19;;;19.83
64600;BMP280;6553;48.412;9.514;2023-04-24T14:25:52;71660.88;;;19.82
64600;BMP280;6553;48.412;9.514;2023-04-24T14:28:21;71660.88;;;19.82
64600;BMP280;6553;48.412;9.514;2023-04-24T14:30:48;71662.97;;;19.84
64600;BMP280;6553;48.412;9.514;2023-04-24T14:33:14;71661.41;;;19.83
64600;BMP280;6553;48.412;9.514;2023-04-24T14:35:41;71662.56;;;19.81